Time;durP1;ratioP1;P1;durP2;ratioP2;P2;SDS_P1;SDS_P2;PMS_P1;PMS_P2;Temp;Humidity;BMP_temperature;BMP_pressure;BME280_temperature;BME280_humidity;BME280_pressure;Samples;Min_cycle;Max_cycle;Signal;HPM_P1;HPM_P2
2022/10/15 00:00:18;;;;;;;9.00;6.00;;;14.30;99.90;;;;;;5005086;28;20501;-81
2022/10/15 00:03:02;;;;;;;6.13;5.03;;;14.30;99.90;;;;;;5004352;28;20408;-82
2022/10/15 00:05:46;;;;;;;7.00;5.27;;;14.30;99.90;;;;;;5005332;28;20447;-81
2022/10/15 00:08:30;;;;;;;5.57;5.03;;;14.30;99.90;;;;;;5004527;28;20396;-81
2022/10/15 00:11:19;;;;;;;9.13;5.53;;;14.30;99.90;;;;;;5004646;28;20385;-81
2022/10/15 00:14:03;;;;;;;8.07;5.13;;;14.30;99.90;;;;;;5002658;28;20385;-80
2022/10/15 00:16:47;;;;;;;6.87;5.60;;;14.30;99.90;;;;;;4996818;28;20800;-81
2022/10/15 00:19:32;;;;;;;5.70;5.17;;;14.30;99.90;;;;;;4997365;28;20464;-80
2022/10/15 00:22:16;;;;;;;6.40;5.47;;;14.30;99.90;;;;;;4996782;28;20893;-80
2022/10/15 00:25:00;;;;;;;9.90;5.13;;;14.30;99.90;;;;;;4997751;28;20448;-80
2022/10/15 00:27:45;;;;;;;6.50;5.60;;;14.30;99.90;;;;;;4998703;28;20473;-80
2022/10/15 00:30:29;;;;;;;7.97;6.40;;;14.30;99.90;;;;;;4997968;28;20428;-81
2022/10/15 00:33:13;;;;;;;6.87;5.87;;;14.20;99.90;;;;;;4998019;28;20853;-81
2022/10/15 00:36:00;;;;;;;5.90;5.37;;;14.20;99.90;;;;;;4997731;28;20388;-78
2022/10/15 00:39:10;;;;;;;6.87;5.90;;;14.20;99.90;;;;;;5014741;28;20396;-79
2022/10/15 00:42:22;;;;;;;7.90;6.57;;;14.20;99.90;;;;;;4956807;29;20410;-80
2022/10/15 00:45:12;;;;;;;7.23;5.53;;;14.20;99.90;;;;;;4878536;29;20433;-80
2022/10/15 00:47:59;;;;;;;8.33;7.17;;;14.20;99.90;;;;;;4957774;29;20419;-80
2022/10/15 00:50:50;;;;;;;7.70;5.63;;;14.20;99.90;;;;;;4900787;29;20459;-78
2022/10/15 00:53:35;;;;;;;15.07;6.07;;;14.20;99.90;;;;;;4887557;29;20430;-81
2022/10/15 00:56:48;;;;;;;7.83;7.03;;;14.20;99.90;;;;;;4899962;29;20462;-80
2022/10/15 00:59:47;;;;;;;7.67;5.90;;;14.20;99.90;;;;;;4867863;29;20443;-80
2022/10/15 01:02:35;;;;;;;7.97;6.40;;;14.20;99.90;;;;;;4842371;29;20488;-80
2022/10/15 01:05:42;;;;;;;9.60;6.87;;;14.30;99.90;;;;;;4866601;29;20484;-81
2022/10/15 01:08:39;;;;;;;8.13;6.67;;;14.30;99.90;;;;;;4878056;29;20489;-80
2022/10/15 01:11:47;;;;;;;7.80;5.83;;;14.30;99.90;;;;;;4843675;29;20419;-79
2022/10/15 01:15:17;;;;;;;8.50;7.70;;;14.30;99.90;;;;;;4861655;29;20444;-79
2022/10/15 01:18:27;;;;;;;7.73;6.93;;;14.30;99.90;;;;;;4861101;29;20867;-80
2022/10/15 01:21:27;;;;;;;7.87;7.07;;;14.20;99.90;;;;;;4838586;29;20419;-81
2022/10/15 01:24:38;;;;;;;7.80;6.53;;;14.20;99.90;;;;;;4856232;29;20449;-80
2022/10/15 01:27:35;;;;;;;7.27;6.53;;;14.30;99.90;;;;;;4843242;29;20549;-81
2022/10/15 01:30:23;;;;;;;8.60;6.13;;;14.30;99.90;;;;;;4843321;29;20407;-81
2022/10/15 01:33:23;;;;;;;7.47;6.73;;;14.30;99.90;;;;;;4843772;29;20488;-81
2022/10/15 01:36:18;;;;;;;10.90;7.63;;;14.40;99.90;;;;;;4844324;29;20423;-80
2022/10/15 01:39:22;;;;;;;7.43;6.67;;;14.40;99.90;;;;;;4857533;29;20411;-81
2022/10/15 01:42:20;;;;;;;7.87;7.07;;;14.40;99.90;;;;;;4868354;29;20854;-78
2022/10/15 01:45:10;;;;;;;8.70;7.30;;;14.40;99.90;;;;;;4880435;29;20464;-80
2022/10/15 01:48:04;;;;;;;8.37;5.83;;;14.40;99.90;;;;;;4880319;29;20467;-81
2022/10/15 01:51:05;;;;;;;9.73;6.50;;;14.40;99.90;;;;;;4929850;28;20488;-79
2022/10/15 01:53:51;;;;;;;7.40;6.70;;;14.30;99.90;;;;;;4985972;28;20784;-81
2022/10/15 01:56:37;;;;;;;7.00;6.00;;;14.40;99.90;;;;;;4983267;28;20429;-81
2022/10/15 01:59:24;;;;;;;7.33;6.03;;;14.30;99.90;;;;;;4992585;28;20513;-80
2022/10/15 02:02:09;;;;;;;10.30;6.93;;;14.30;99.90;;;;;;4977656;28;20396;-80
2022/10/15 02:04:53;;;;;;;7.27;6.27;;;14.30;99.90;;;;;;4977861;28;20413;-80
2022/10/15 02:08:10;;;;;;;8.60;7.70;;;14.30;99.90;;;;;;4977303;28;20926;-81
2022/10/15 02:11:03;;;;;;;6.80;5.80;;;14.30;99.90;;;;;;4977773;28;20390;-80
2022/10/15 02:13:57;;;;;;;6.90;5.73;;;14.40;99.90;;;;;;4983932;28;20397;-80
2022/10/15 02:16:50;;;;;;;7.57;6.10;;;14.30;99.90;;;;;;4979861;28;20406;-83
2022/10/15 02:19:49;;;;;;;6.27;5.67;;;14.40;99.90;;;;;;4986411;28;20507;-81
2022/10/15 02:22:40;;;;;;;6.77;6.07;;;14.40;99.90;;;;;;4995694;28;20408;-80
2022/10/15 02:25:27;;;;;;;7.40;5.70;;;14.40;99.90;;;;;;4996682;28;20967;-81
2022/10/15 02:28:13;;;;;;;10.17;6.30;;;14.40;99.90;;;;;;4998615;28;20443;-80
2022/10/15 02:31:00;;;;;;;7.57;5.93;;;14.30;99.90;;;;;;4998247;28;20385;-80
2022/10/15 02:33:47;;;;;;;7.57;6.30;;;14.30;99.90;;;;;;4998422;28;20436;-81
2022/10/15 02:36:32;;;;;;;7.23;6.20;;;14.30;99.90;;;;;;4998201;28;20940;-80
2022/10/15 02:39:21;;;;;;;7.00;6.20;;;14.30;99.90;;;;;;4997887;28;20489;-80
2022/10/15 02:42:05;;;;;;;4.97;4.57;;;14.30;99.90;;;;;;4998082;28;20396;-80
2022/10/15 02:44:50;;;;;;;6.00;5.30;;;14.20;99.90;;;;;;4998005;28;20450;-80
2022/10/15 02:47:34;;;;;;;6.53;5.80;;;14.30;99.90;;;;;;4998046;28;20380;-81
2022/10/15 02:50:19;;;;;;;6.27;5.67;;;14.30;99.90;;;;;;4989258;28;20409;-81
2022/10/15 02:53:03;;;;;;;4.83;4.43;;;14.30;99.90;;;;;;4980367;28;20525;-80
2022/10/15 02:55:47;;;;;;;5.63;4.80;;;14.30;99.90;;;;;;4980823;28;20467;-81
2022/10/15 02:58:31;;;;;;;5.83;5.23;;;14.30;99.90;;;;;;4979394;28;20462;-81
2022/10/15 03:01:17;;;;;;;5.00;4.50;;;14.30;99.90;;;;;;4980423;28;20394;-81
2022/10/15 03:04:01;;;;;;;6.13;5.33;;;14.30;99.90;;;;;;4980432;28;20390;-80
2022/10/15 03:06:46;;;;;;;5.80;5.00;;;14.30;99.90;;;;;;4978693;28;20453;-80
2022/10/15 03:09:32;;;;;;;4.60;4.00;;;14.30;99.90;;;;;;4980690;28;20458;-81
2022/10/15 03:12:19;;;;;;;5.43;4.77;;;14.20;99.90;;;;;;4993056;28;20410;-80
2022/10/15 03:15:04;;;;;;;4.77;3.90;;;14.30;99.90;;;;;;4986539;28;20432;-80
2022/10/15 03:17:49;;;;;;;4.80;3.90;;;14.30;99.90;;;;;;4979811;28;20394;-80
2022/10/15 03:20:33;;;;;;;5.20;4.37;;;14.20;99.90;;;;;;5009458;28;20451;-81
2022/10/15 03:23:18;;;;;;;5.40;4.80;;;14.30;99.90;;;;;;5018419;28;20439;-80
2022/10/15 03:26:02;;;;;;;4.83;4.13;;;14.20;99.90;;;;;;5018657;28;20439;-80
2022/10/15 03:28:46;;;;;;;4.83;3.97;;;14.20;99.90;;;;;;5018936;28;20388;-80
2022/10/15 03:31:30;;;;;;;5.30;4.80;;;14.30;99.90;;;;;;5019115;28;20610;-80
2022/10/15 03:34:14;;;;;;;4.87;3.83;;;14.30;99.90;;;;;;5019056;28;20502;-79
2022/10/15 03:36:58;;;;;;;5.23;4.57;;;14.30;99.90;;;;;;5017755;28;20749;-79
2022/10/15 03:39:43;;;;;;;4.80;4.30;;;14.30;99.90;;;;;;5018774;28;20457;-80
2022/10/15 03:42:27;;;;;;;5.40;4.20;;;14.30;99.90;;;;;;5018028;28;20411;-81
2022/10/15 03:45:11;;;;;;;4.83;4.33;;;14.30;99.90;;;;;;5018223;28;20458;-80
2022/10/15 03:47:55;;;;;;;6.63;4.83;;;14.30;99.90;;;;;;5003802;28;20443;-81
2022/10/15 03:50:39;;;;;;;5.30;4.30;;;14.30;99.90;;;;;;5014391;28;20399;-81
2022/10/15 03:53:23;;;;;;;5.17;4.10;;;14.40;99.90;;;;;;5017228;28;20450;-80
2022/10/15 03:56:07;;;;;;;21.07;5.10;;;14.30;99.90;;;;;;5017233;28;20423;-80
2022/10/15 03:58:52;;;;;;;4.93;4.13;;;14.30;99.90;;;;;;5017142;28;20899;-80
2022/10/15 04:01:36;;;;;;;4.23;3.93;;;14.30;99.90;;;;;;5003597;28;20391;-81
2022/10/15 04:04:20;;;;;;;3.70;3.40;;;14.30;99.90;;;;;;5018007;28;20453;-81
2022/10/15 04:07:04;;;;;;;3.80;3.50;;;14.30;99.90;;;;;;5017383;28;20444;-81
2022/10/15 04:09:48;;;;;;;11.00;4.70;;;14.30;99.90;;;;;;5017561;28;20384;-81
2022/10/15 04:12:33;;;;;;;4.33;3.50;;;14.30;99.90;;;;;;5017436;28;20472;-80
2022/10/15 04:15:17;;;;;;;4.33;3.93;;;14.30;99.90;;;;;;5018060;28;20447;-79
2022/10/15 04:18:01;;;;;;;3.50;3.23;;;14.30;99.90;;;;;;5016978;28;20396;-80
2022/10/15 04:20:45;;;;;;;3.70;3.40;;;14.40;99.90;;;;;;5017271;28;20470;-81
2022/10/15 04:23:29;;;;;;;3.30;3.00;;;14.30;99.90;;;;;;5017811;28;20399;-80
2022/10/15 04:26:13;;;;;;;6.60;3.53;;;14.40;99.90;;;;;;5017858;28;20443;-80
2022/10/15 04:28:57;;;;;;;3.77;3.43;;;14.40;99.90;;;;;;5017422;28;20527;-79
2022/10/15 04:31:42;;;;;;;3.77;3.47;;;14.40;99.90;;;;;;5017031;28;20435;-80
2022/10/15 04:34:26;;;;;;;4.43;3.57;;;14.40;99.90;;;;;;5002270;28;20392;-80
2022/10/15 04:37:11;;;;;;;4.23;3.83;;;14.40;99.90;;;;;;5016384;28;20387;-81
2022/10/15 04:39:55;;;;;;;6.67;2.80;;;14.30;99.90;;;;;;5017856;28;20483;-79
2022/10/15 04:42:39;;;;;;;3.00;2.80;;;14.30;99.90;;;;;;5017506;28;20394;-80
2022/10/15 04:45:23;;;;;;;6.33;3.40;;;14.30;99.90;;;;;;5017194;28;20466;-81
2022/10/15 04:48:07;;;;;;;4.87;3.63;;;14.30;99.90;;;;;;5018777;28;20376;-81
2022/10/15 04:50:51;;;;;;;2.80;2.60;;;14.40;99.90;;;;;;5020324;28;20458;-81
2022/10/15 04:53:35;;;;;;;3.60;2.90;;;14.40;99.90;;;;;;5017197;28;20387;-81
2022/10/15 04:56:20;;;;;;;4.33;2.80;;;14.30;99.90;;;;;;5017200;28;20482;-80
2022/10/15 04:59:07;;;;;;;5.10;3.07;;;14.40;99.90;;;;;;5016779;28;20788;-81
2022/10/15 05:01:51;;;;;;;3.00;2.73;;;14.40;99.90;;;;;;5017422;28;20404;-81
2022/10/15 05:04:35;;;;;;;4.70;3.03;;;14.40;99.90;;;;;;5017216;28;20396;-80
2022/10/15 05:07:19;;;;;;;3.33;3.00;;;14.50;99.90;;;;;;5017237;28;20380;-81
2022/10/15 05:10:04;;;;;;;2.80;2.50;;;14.40;99.90;;;;;;5016856;28;20376;-80
2022/10/15 05:12:49;;;;;;;2.60;2.40;;;14.50;99.90;;;;;;5017710;28;20383;-80
2022/10/15 05:15:33;;;;;;;2.63;2.43;;;14.50;99.90;;;;;;5016758;28;20400;-81
2022/10/15 05:18:17;;;;;;;2.97;2.50;;;14.50;99.90;;;;;;5016678;28;20416;-81
2022/10/15 05:21:01;;;;;;;10.63;3.00;;;14.50;99.90;;;;;;5016457;28;20838;-81
2022/10/15 05:23:46;;;;;;;3.17;2.80;;;14.50;99.90;;;;;;5015841;28;20413;-80
2022/10/15 05:26:31;;;;;;;3.13;2.83;;;14.50;99.90;;;;;;5016845;28;21022;-80
2022/10/15 05:29:15;;;;;;;3.83;2.70;;;14.50;99.90;;;;;;5016491;28;20387;-81
2022/10/15 05:31:59;;;;;;;5.27;3.90;;;14.50;99.90;;;;;;5016929;28;20396;-81
2022/10/15 05:34:43;;;;;;;2.70;2.17;;;14.50;99.90;;;;;;5017251;28;20387;-80
2022/10/15 05:37:27;;;;;;;3.13;2.83;;;14.50;99.90;;;;;;5016886;28;20379;-80
2022/10/15 05:40:11;;;;;;;4.20;2.80;;;14.50;99.90;;;;;;5016822;28;21023;-80
2022/10/15 05:42:55;;;;;;;2.83;2.63;;;14.50;99.90;;;;;;5016798;28;20434;-80
2022/10/15 05:45:40;;;;;;;3.50;3.20;;;14.50;99.90;;;;;;5017382;28;20463;-80
2022/10/15 05:48:24;;;;;;;3.20;2.33;;;14.60;99.90;;;;;;5016052;28;20391;-81
2022/10/15 05:51:11;;;;;;;3.97;2.27;;;14.50;99.90;;;;;;5017004;28;20759;-81
2022/10/15 05:53:56;;;;;;;2.77;2.20;;;14.50;99.90;;;;;;5002832;28;20388;-80
2022/10/15 05:56:41;;;;;;;3.50;2.47;;;14.60;99.90;;;;;;5016722;28;20438;-81
2022/10/15 05:59:25;;;;;;;3.60;3.30;;;14.50;99.90;;;;;;5016966;28;20877;-81
2022/10/15 06:02:14;;;;;;;2.83;2.53;;;14.60;99.90;;;;;;5020354;28;20453;-81
2022/10/15 06:04:58;;;;;;;3.90;3.00;;;14.60;99.90;;;;;;5020823;28;20384;-81
2022/10/15 06:07:43;;;;;;;4.00;3.60;;;14.60;99.90;;;;;;5020040;28;20510;-80
2022/10/15 06:10:27;;;;;;;3.60;3.30;;;14.60;99.90;;;;;;5020571;28;20468;-80
2022/10/15 06:13:12;;;;;;;6.23;3.23;;;14.60;99.90;;;;;;5020285;28;20750;-81
2022/10/15 06:15:56;;;;;;;3.20;2.87;;;14.60;99.90;;;;;;5019588;28;20435;-80
2022/10/15 06:18:41;;;;;;;3.60;2.33;;;14.60;99.90;;;;;;5020850;28;20399;-80
2022/10/15 06:21:25;;;;;;;3.10;2.77;;;14.70;99.90;;;;;;5020653;28;20443;-81
2022/10/15 06:24:09;;;;;;;2.63;2.43;;;14.70;99.90;;;;;;5020237;28;20419;-81
2022/10/15 06:26:52;;;;;;;5.97;2.33;;;14.70;99.90;;;;;;5020591;28;20435;-81
2022/10/15 06:29:37;;;;;;;4.03;2.63;;;14.70;99.90;;;;;;5019896;28;20923;-81
2022/10/15 06:32:20;;;;;;;3.27;3.00;;;14.70;99.90;;;;;;5020760;28;20407;-80
2022/10/15 06:35:05;;;;;;;3.73;3.33;;;14.70;99.90;;;;;;5020034;28;20448;-80
2022/10/15 06:37:49;;;;;;;3.30;3.07;;;14.80;99.90;;;;;;5019001;28;20379;-81
2022/10/15 06:40:34;;;;;;;2.90;2.70;;;14.80;99.90;;;;;;5020757;28;20392;-80
2022/10/15 06:43:18;;;;;;;2.50;2.30;;;14.80;99.90;;;;;;5033325;28;20417;-79
2022/10/15 06:46:04;;;;;;;2.67;2.50;;;14.80;99.90;;;;;;5019870;28;20459;-81
2022/10/15 06:48:48;;;;;;;5.17;2.43;;;14.80;99.90;;;;;;5022034;28;20388;-80
2022/10/15 06:51:33;;;;;;;3.70;3.40;;;14.80;99.90;;;;;;5021417;28;20738;-80
2022/10/15 06:54:17;;;;;;;2.60;2.40;;;14.80;99.90;;;;;;5018982;28;20412;-80
2022/10/15 06:57:01;;;;;;;4.20;2.83;;;14.90;99.90;;;;;;5019499;28;20462;-81
2022/10/15 06:59:45;;;;;;;6.27;3.83;;;14.90;99.90;;;;;;5020848;28;20446;-80
2022/10/15 07:02:30;;;;;;;3.53;3.00;;;15.00;99.90;;;;;;5020337;28;20903;-81
2022/10/15 07:05:14;;;;;;;7.23;3.33;;;15.00;99.90;;;;;;5020466;28;20524;-80
2022/10/15 07:07:59;;;;;;;3.50;3.20;;;15.00;99.90;;;;;;5018114;28;20450;-80
2022/10/15 07:10:43;;;;;;;3.47;3.23;;;15.00;99.90;;;;;;5017974;28;20800;-81
2022/10/15 07:13:28;;;;;;;3.83;3.53;;;15.00;99.90;;;;;;5019762;28;20383;-80
2022/10/15 07:16:13;;;;;;;4.10;3.10;;;15.10;99.90;;;;;;5019402;28;20752;-79
2022/10/15 07:18:57;;;;;;;3.67;3.37;;;15.20;99.90;;;;;;5019592;28;20400;-81
2022/10/15 07:21:41;;;;;;;3.17;2.97;;;15.10;99.90;;;;;;5021155;28;20407;-80
2022/10/15 07:24:25;;;;;;;4.37;3.03;;;15.20;99.90;;;;;;5021057;28;20388;-80
2022/10/15 07:27:37;;;;;;;3.87;3.53;;;15.20;99.90;;;;;;5026743;28;20440;-81
2022/10/15 07:30:26;;;;;;;2.33;2.13;;;15.20;99.90;;;;;;5000212;28;20427;-80
2022/10/15 07:33:51;;;;;;;6.73;2.50;;;15.30;99.90;;;;;;4932959;29;20423;-79
2022/10/15 07:36:36;;;;;;;2.50;2.30;;;15.40;99.90;;;;;;4954851;29;20440;-79
2022/10/15 07:39:23;;;;;;;2.60;2.40;;;15.50;99.90;;;;;;4915279;29;20573;-80
2022/10/15 07:42:07;;;;;;;2.73;2.53;;;15.60;99.90;;;;;;4947866;29;20422;-80
2022/10/15 07:44:52;;;;;;;4.80;2.87;;;15.60;99.90;;;;;;4927162;29;20418;-80
2022/10/15 07:47:39;;;;;;;3.40;3.10;;;15.60;99.90;;;;;;4926831;29;20444;-80
2022/10/15 07:50:23;;;;;;;2.97;2.77;;;15.60;99.90;;;;;;4940696;29;20455;-80
2022/10/15 07:53:07;;;;;;;2.83;2.27;;;15.70;99.90;;;;;;4940424;29;20407;-79
2022/10/15 07:55:51;;;;;;;2.73;2.53;;;15.70;99.90;;;;;;4940755;29;20427;-80
2022/10/15 07:58:37;;;;;;;3.10;2.80;;;15.70;99.90;;;;;;4940724;29;20406;-80
2022/10/15 08:01:21;;;;;;;2.90;2.70;;;15.70;99.90;;;;;;4940404;29;20984;-81
2022/10/15 08:04:06;;;;;;;3.27;2.97;;;15.80;99.90;;;;;;4942833;29;20928;-81
2022/10/15 08:06:50;;;;;;;2.47;2.27;;;15.80;99.90;;;;;;4943134;29;20462;-80
2022/10/15 08:09:35;;;;;;;3.53;2.77;;;15.80;99.90;;;;;;4941668;29;20910;-80
2022/10/15 08:12:19;;;;;;;3.10;2.53;;;15.80;99.90;;;;;;4939687;29;20464;-80
2022/10/15 08:15:04;;;;;;;3.13;2.83;;;15.90;99.90;;;;;;4965375;28;20553;-81
2022/10/15 08:17:48;;;;;;;2.73;2.53;;;15.90;99.90;;;;;;4964802;28;20448;-81
2022/10/15 08:20:33;;;;;;;3.47;3.17;;;15.90;99.90;;;;;;4978282;28;20452;-81
2022/10/15 08:23:17;;;;;;;2.77;2.57;;;15.90;99.90;;;;;;4977678;28;20467;-81
2022/10/15 08:26:02;;;;;;;2.80;2.60;;;15.80;99.90;;;;;;4978036;28;20468;-81
2022/10/15 08:28:46;;;;;;;2.87;2.67;;;15.80;99.90;;;;;;4964595;28;20449;-80
2022/10/15 08:31:31;;;;;;;2.77;2.57;;;15.80;99.90;;;;;;4976453;28;20393;-80
2022/10/15 08:34:16;;;;;;;3.10;2.73;;;15.80;99.90;;;;;;4977308;28;20441;-81
2022/10/15 08:37:01;;;;;;;2.80;2.60;;;15.90;99.90;;;;;;5009694;28;20403;-80
2022/10/15 08:39:46;;;;;;;4.40;3.00;;;15.90;99.90;;;;;;5018192;28;20916;-81
2022/10/15 08:42:37;;;;;;;3.20;2.70;;;15.90;99.90;;;;;;5018539;28;20791;-80
2022/10/15 08:45:28;;;;;;;2.60;2.40;;;15.90;99.90;;;;;;5004353;28;20448;-80
2022/10/15 08:48:20;;;;;;;2.00;1.90;;;15.90;99.90;;;;;;5018446;28;20388;-80
2022/10/15 08:51:12;;;;;;;2.60;2.40;;;15.90;99.90;;;;;;5018008;28;20384;-81
2022/10/15 08:54:01;;;;;;;1.97;1.87;;;16.00;99.90;;;;;;5018052;28;20925;-80
2022/10/15 08:56:52;;;;;;;5.50;4.73;;;16.00;99.90;;;;;;5017308;28;20430;-80
2022/10/15 08:59:49;;;;;;;5.33;4.93;;;16.00;99.90;;;;;;5016624;28;20733;-80
2022/10/15 09:02:42;;;;;;;2.60;2.23;;;16.10;99.90;;;;;;5015930;28;20388;-82
2022/10/15 09:05:51;;;;;;;2.80;2.60;;;16.10;99.90;;;;;;5015792;28;20486;-79
2022/10/15 09:09:00;;;;;;;3.17;2.97;;;16.10;99.90;;;;;;5016669;28;20483;-80
2022/10/15 09:11:59;;;;;;;3.07;2.87;;;16.20;99.90;;;;;;5017443;28;20384;-80
2022/10/15 09:14:46;;;;;;;2.60;2.40;;;16.20;99.90;;;;;;5016291;28;20956;-80
2022/10/15 09:17:32;;;;;;;2.77;1.97;;;16.20;99.90;;;;;;5016511;28;20395;-80
2022/10/15 09:20:33;;;;;;;2.40;2.20;;;16.30;99.90;;;;;;5015746;28;20579;-80
2022/10/15 09:23:21;;;;;;;3.63;2.20;;;16.40;99.90;;;;;;5016988;28;20406;-80
2022/10/15 09:26:37;;;;;;;2.63;2.53;;;16.40;99.90;;;;;;5016543;28;20442;-81
2022/10/15 09:29:46;;;;;;;2.13;2.00;;;16.50;99.90;;;;;;5018104;28;20388;-79
2022/10/15 09:32:44;;;;;;;2.10;1.90;;;16.50;99.90;;;;;;5017945;28;20439;-81
2022/10/15 09:35:38;;;;;;;5.50;1.90;;;16.40;99.90;;;;;;5019839;28;20392;-80
2022/10/15 09:38:55;;;;;;;1.77;1.67;;;16.40;99.90;;;;;;5020804;28;20439;-81
2022/10/15 09:41:57;;;;;;;1.70;1.60;;;16.50;99.90;;;;;;5019416;28;20416;-81
2022/10/15 09:44:44;;;;;;;1.40;1.30;;;16.60;99.90;;;;;;5019600;28;20833;-81
2022/10/15 09:47:32;;;;;;;1.30;1.20;;;16.70;99.90;;;;;;5019354;28;20397;-81
2022/10/15 09:50:17;;;;;;;4.70;1.40;;;16.70;99.90;;;;;;5020461;28;20399;-81
2022/10/15 09:53:22;;;;;;;1.60;1.50;;;17.00;99.90;;;;;;5020798;28;20435;-80
2022/10/15 09:56:18;;;;;;;1.70;1.60;;;17.20;99.90;;;;;;5020668;28;20427;-81
2022/10/15 09:59:03;;;;;;;2.00;1.50;;;17.30;99.90;;;;;;5020446;28;20376;-81
2022/10/15 10:02:20;;;;;;;15.57;2.00;;;17.50;99.90;;;;;;5019533;28;20384;-80
2022/10/15 10:05:18;;;;;;;1.47;1.37;;;17.60;99.90;;;;;;5019201;28;20383;-80
2022/10/15 10:08:20;;;;;;;2.53;1.40;;;17.60;99.90;;;;;;5020840;28;20394;-81
2022/10/15 10:11:09;;;;;;;4.93;1.63;;;17.60;99.90;;;;;;5027244;28;20403;-80
2022/10/15 10:13:56;;;;;;;1.63;1.53;;;17.60;99.90;;;;;;5019554;28;20510;-81
2022/10/15 10:17:04;;;;;;;1.77;1.60;;;17.60;99.90;;;;;;5020180;28;20924;-80
2022/10/15 10:20:19;;;;;;;1.47;1.37;;;18.00;99.90;;;;;;5019089;28;20566;-81
2022/10/15 10:23:22;;;;;;;1.50;1.40;;;18.30;99.90;;;;;;5019940;28;20403;-79
2022/10/15 10:26:09;;;;;;;1.20;1.10;;;18.20;99.90;;;;;;5019716;28;20525;-81
2022/10/15 10:28:55;;;;;;;1.30;1.20;;;18.40;99.90;;;;;;5020104;28;20435;-80
2022/10/15 10:31:42;;;;;;;1.37;1.27;;;18.40;99.90;;;;;;5019692;28;20460;-80
2022/10/15 10:34:30;;;;;;;2.50;1.33;;;18.10;99.90;;;;;;5019502;28;20408;-81
2022/10/15 10:37:14;;;;;;;1.60;1.50;;;18.00;99.90;;;;;;5019043;28;20895;-81
2022/10/15 10:40:01;;;;;;;5.80;1.43;;;17.70;99.90;;;;;;5019840;28;20395;-81
2022/10/15 10:42:45;;;;;;;1.43;1.33;;;17.80;99.90;;;;;;5019744;28;20379;-81
2022/10/15 10:45:30;;;;;;;1.47;1.37;;;17.90;99.90;;;;;;5019246;28;20807;-81
2022/10/15 10:48:18;;;;;;;1.10;1.00;;;18.10;99.90;;;;;;5019238;28;20843;-81
2022/10/15 10:51:14;;;;;;;1.40;1.30;;;18.20;99.90;;;;;;5018914;28;20423;-81
2022/10/15 10:54:03;;;;;;;1.43;1.20;;;18.20;99.90;;;;;;5018406;28;20448;-81
2022/10/15 10:56:48;;;;;;;2.23;1.10;;;18.20;99.90;;;;;;5019676;28;20507;-80
2022/10/15 10:59:38;;;;;;;1.40;1.30;;;18.30;99.90;;;;;;5019294;28;20404;-81
2022/10/15 11:02:24;;;;;;;2.27;1.57;;;18.10;99.90;;;;;;5019066;28;20743;-81
2022/10/15 11:05:10;;;;;;;1.60;1.50;;;18.10;99.90;;;;;;5019704;28;20791;-81
2022/10/15 11:08:23;;;;;;;1.33;1.20;;;18.10;99.90;;;;;;5020100;28;20391;-80
2022/10/15 11:11:26;;;;;;;1.10;1.00;;;18.30;99.90;;;;;;5020289;28;20730;-81
2022/10/15 11:14:28;;;;;;;1.17;1.07;;;18.30;99.90;;;;;;5024493;28;20417;-81
2022/10/15 11:17:25;;;;;;;1.30;1.20;;;18.40;99.90;;;;;;5024855;28;20426;-81
2022/10/15 11:20:34;;;;;;;1.77;1.30;;;18.40;99.90;;;;;;5024791;28;20701;-82
2022/10/15 11:23:43;;;;;;;1.57;1.20;;;18.30;99.90;;;;;;5024529;28;20392;-82
2022/10/15 11:26:55;;;;;;;1.60;1.50;;;18.10;99.90;;;;;;5013015;28;20459;-81
2022/10/15 11:30:03;;;;;;;1.23;1.13;;;18.20;99.90;;;;;;5024011;28;20515;-81
2022/10/15 11:33:04;;;;;;;1.50;1.40;;;18.20;99.90;;;;;;5026317;28;20415;-81
2022/10/15 11:35:58;;;;;;;3.47;1.30;;;18.20;99.90;;;;;;5024742;28;20411;-78
2022/10/15 11:38:53;;;;;;;1.50;1.40;;;18.30;99.90;;;;;;5024221;28;20392;-82
2022/10/15 11:41:50;;;;;;;1.60;1.50;;;18.40;99.90;;;;;;5025657;28;20391;-81
2022/10/15 11:45:03;;;;;;;4.00;1.50;;;18.50;99.90;;;;;;5010304;28;20384;-80
2022/10/15 11:47:59;;;;;;;1.43;1.33;;;18.60;99.90;;;;;;5025118;28;20424;-80
2022/10/15 11:50:49;;;;;;;4.20;1.70;;;18.70;99.90;;;;;;5023166;28;20391;-82
2022/10/15 11:54:08;;;;;;;2.07;1.70;;;18.50;99.90;;;;;;5024661;28;20387;-81
2022/10/15 11:56:54;;;;;;;2.03;1.93;;;18.50;99.90;;;;;;5020838;28;20467;-81
2022/10/15 11:59:50;;;;;;;1.83;1.73;;;18.10;99.90;;;;;;5020245;28;20387;-82
2022/10/15 12:02:37;;;;;;;1.67;1.57;;;18.10;99.90;;;;;;4995016;28;20858;-81
2022/10/15 12:05:33;;;;;;;1.90;1.80;;;18.10;99.90;;;;;;5022131;28;20466;-80
2022/10/15 12:08:18;;;;;;;2.17;2.00;;;18.10;99.90;;;;;;5021921;28;20431;-82
2022/10/15 12:11:29;;;;;;;3.70;2.20;;;18.20;99.90;;;;;;5021055;28;20411;-79
2022/10/15 12:14:29;;;;;;;2.67;2.57;;;18.30;99.90;;;;;;5006774;28;20471;-81
2022/10/15 12:17:41;;;;;;;2.30;2.03;;;18.30;99.90;;;;;;5020785;28;20419;-81
2022/10/15 12:20:27;;;;;;;2.37;2.17;;;18.60;99.90;;;;;;5021164;28;20993;-81
2022/10/15 12:23:39;;;;;;;1.93;1.73;;;19.20;99.90;;;;;;5006941;28;20523;-81
2022/10/15 12:26:30;;;;;;;1.20;1.10;;;19.20;99.90;;;;;;5022057;28;20570;-81
2022/10/15 12:29:21;;;;;;;1.90;1.80;;;19.00;99.90;;;;;;5008563;28;20407;-81
2022/10/15 12:32:22;;;;;;;1.70;1.60;;;19.70;99.90;;;;;;5021948;28;20415;-81
2022/10/15 12:35:27;;;;;;;1.30;1.20;;;19.50;99.90;;;;;;5024101;28;20472;-81
2022/10/15 12:38:23;;;;;;;3.07;1.73;;;19.60;99.90;;;;;;5022418;28;20407;-82
2022/10/15 12:41:11;;;;;;;1.37;1.27;;;20.90;99.90;;;;;;5022055;28;20389;-81
2022/10/15 12:44:07;;;;;;;1.47;1.37;;;21.00;99.90;;;;;;5024440;28;20459;-82
2022/10/15 12:46:52;;;;;;;2.30;1.30;;;20.50;99.90;;;;;;5009510;28;20955;-82
2022/10/15 12:49:58;;;;;;;2.07;1.77;;;20.50;99.90;;;;;;5023516;28;20388;-82
2022/10/15 12:52:59;;;;;;;1.20;1.10;;;19.70;99.90;;;;;;5023031;28;20773;-79
2022/10/15 12:55:43;;;;;;;1.33;1.23;;;20.20;99.90;;;;;;5016154;28;20476;-82
2022/10/15 12:58:37;;;;;;;1.70;1.60;;;20.90;99.90;;;;;;5015103;28;20431;-82
2022/10/15 13:01:50;;;;;;;1.50;1.40;;;20.90;99.90;;;;;;5016669;28;20403;-81
2022/10/15 13:04:41;;;;;;;1.23;1.13;;;20.60;99.90;;;;;;5016250;28;20388;-81
2022/10/15 13:07:26;;;;;;;1.40;1.30;;;19.80;99.90;;;;;;5016376;28;20527;-81
2022/10/15 13:10:23;;;;;;;1.53;1.43;;;19.80;99.90;;;;;;5014731;28;20391;-80
2022/10/15 13:13:14;;;;;;;1.80;1.20;;;19.40;99.90;;;;;;5016560;28;20900;-81
2022/10/15 13:16:05;;;;;;;1.30;1.20;;;19.80;99.90;;;;;;5016171;28;20450;-81
2022/10/15 13:18:52;;;;;;;2.50;1.53;;;19.20;99.90;;;;;;5015644;28;20403;-81
2022/10/15 13:21:54;;;;;;;1.93;1.80;;;19.40;99.90;;;;;;5016578;28;20490;-82
2022/10/15 13:24:44;;;;;;;1.90;1.80;;;19.50;99.90;;;;;;5016578;28;20856;-82
2022/10/15 13:27:31;;;;;;;1.53;1.43;;;19.70;99.90;;;;;;5016116;28;20967;-81
2022/10/15 13:30:16;;;;;;;1.80;1.70;;;19.50;99.90;;;;;;5005821;28;20440;-80
2022/10/15 13:33:00;;;;;;;1.77;1.57;;;19.00;99.90;;;;;;5019152;28;20395;-80
2022/10/15 13:35:44;;;;;;;2.43;2.23;;;18.90;99.90;;;;;;5020204;28;20403;-81
2022/10/15 13:38:29;;;;;;;1.70;1.60;;;18.70;99.90;;;;;;5019505;28;20431;-81
2022/10/15 13:41:13;;;;;;;2.03;1.90;;;18.60;99.90;;;;;;5020584;28;20426;-81
2022/10/15 13:43:59;;;;;;;3.70;2.80;;;18.70;99.90;;;;;;5005449;28;20407;-81
2022/10/15 13:46:43;;;;;;;1.53;1.43;;;18.70;99.90;;;;;;5019599;28;20474;-80
2022/10/15 13:49:28;;;;;;;2.90;1.47;;;18.80;99.90;;;;;;5019507;28;20392;-81
2022/10/15 13:52:12;;;;;;;2.07;1.87;;;18.80;99.90;;;;;;5017528;28;20415;-80
2022/10/15 13:54:57;;;;;;;1.50;1.40;;;18.60;99.90;;;;;;5014199;28;20435;-81
2022/10/15 13:57:45;;;;;;;1.53;1.43;;;18.60;99.90;;;;;;5015383;28;20809;-81
2022/10/15 14:00:33;;;;;;;1.47;1.37;;;18.40;99.90;;;;;;5014416;28;20793;-81
2022/10/15 14:03:21;;;;;;;2.20;2.00;;;18.90;99.90;;;;;;5013986;28;20440;-81
2022/10/15 14:06:17;;;;;;;1.50;1.40;;;19.30;99.90;;;;;;5000990;28;20443;-79
2022/10/15 14:09:18;;;;;;;1.50;1.33;;;20.30;99.90;;;;;;5013375;28;20965;-79
2022/10/15 14:12:06;;;;;;;6.20;1.20;;;20.50;99.90;;;;;;5014504;28;20854;-80
2022/10/15 14:14:50;;;;;;;1.70;1.60;;;20.40;99.90;;;;;;5000214;28;20748;-79
2022/10/15 14:17:35;;;;;;;1.30;1.20;;;21.00;99.90;;;;;;5014975;28;20498;-79
2022/10/15 14:20:21;;;;;;;1.50;1.40;;;20.80;99.90;;;;;;5000200;28;20510;-81
2022/10/15 14:23:06;;;;;;;2.70;2.50;;;20.40;99.90;;;;;;5017822;28;20395;-80
2022/10/15 14:25:56;;;;;;;1.30;1.20;;;20.00;99.90;;;;;;5017706;28;20450;-81
2022/10/15 14:28:41;;;;;;;1.70;1.60;;;19.80;99.90;;;;;;5019694;28;20907;-82
2022/10/15 14:31:40;;;;;;;1.40;1.30;;;19.80;99.90;;;;;;5019943;28;20855;-77
2022/10/15 14:34:39;;;;;;;3.00;1.20;;;20.30;99.90;;;;;;5019673;28;20391;-81
2022/10/15 14:37:39;;;;;;;1.47;1.37;;;20.60;99.90;;;;;;5026465;28;20415;-80
2022/10/15 14:40:24;;;;;;;1.20;1.10;;;20.50;99.90;;;;;;5029725;28;20396;-79
2022/10/15 14:43:17;;;;;;;1.43;1.30;;;20.30;99.90;;;;;;5029592;28;20510;-80